sensor_id;sensor_type;location;lat;lon;timestamp;P1;durP1;ratioP1;P2;durP2;ratioP2
62056;SDS011;48016;50.284;18.860;2023-04-24T00:00:40;14.90;;;10.40;;
62056;SDS011;48016;50.284;18.860;2023-04-24T00:03:23;13.80;;;10.60;;
62056;SDS011;48016;50.284;18.860;2023-04-24T00:05:50;16.80;;;11.00;;
62056;SDS011;48016;50.284;18.860;2023-04-24T00:08:17;14.70;;;11.10;;
62056;SDS011;48016;50.284;18.860;2023-04-24T00:10:44;15.20;;;9.80;;
62056;SDS011;48016;50.284;18.860;2023-04-24T00:13:11;14.40;;;10.40;;
62056;SDS011;48016;50.284;18.860;2023-04-24T00:15:38;14.30;;;10.30;;
62056;SDS011;48016;50.284;18.860;2023-04-24T00:18:04;15.00;;;9.70;;
62056;SDS011;48016;50.284;18.860;2023-04-24T00:20:31;13.20;;;9.90;;
62056;SDS011;48016;50.284;18.860;2023-04-24T00:23:02;13.60;;;9.20;;
62056;SDS011;48016;50.284;18.860;2023-04-24T00:25:28;14.90;;;9.90;;
62056;SDS011;48016;50.284;18.860;2023-04-24T00:27:55;13.00;;;10.30;;
62056;SDS011;48016;50.284;18.860;2023-04-24T00:30:22;13.30;;;10.50;;
62056;SDS011;48016;50.284;18.860;2023-04-24T00:32:49;14.20;;;10.50;;
62056;SDS011;48016;50.284;18.860;2023-04-24T00:35:15;13.00;;;10.40;;
62056;SDS011;48016;50.284;18.860;2023-04-24T00:37:42;14.10;;;10.70;;
62056;SDS011;48016;50.284;18.860;2023-04-24T00:40:09;17.10;;;11.10;;
62056;SDS011;48016;50.284;18.860;2023-04-24T00:42:36;14.00;;;10.40;;
62056;SDS011;48016;50.284;18.860;2023-04-24T00:45:03;17.10;;;11.60;;
62056;SDS011;48016;50.284;18.860;2023-04-24T00:47:31;15.50;;;11.60;;
62056;SDS011;48016;50.284;18.860;2023-04-24T00:50:01;14.20;;;10.90;;
62056;SDS011;48016;50.284;18.860;2023-04-24T00:52:28;15.20;;;11.30;;
62056;SDS011;48016;50.284;18.860;2023-04-24T00:54:57;15.70;;;11.50;;
62056;SDS011;48016;50.284;18.860;2023-04-24T00:57:24;16.00;;;11.70;;
62056;SDS011;48016;50.284;18.860;2023-04-24T00:59:51;17.40;;;11.10;;
62056;SDS011;48016;50.284;18.860;2023-04-24T01:02:19;16.10;;;11.80;;
62056;SDS011;48016;50.284;18.860;2023-04-24T01:04:47;14.60;;;11.80;;
62056;SDS011;48016;50.284;18.860;2023-04-24T01:07:16;14.50;;;10.80;;
62056;SDS011;48016;50.284;18.860;2023-04-24T01:09:44;15.90;;;10.20;;
62056;SDS011;48016;50.284;18.860;2023-04-24T01:12:13;14.50;;;10.90;;
62056;SDS011;48016;50.284;18.860;2023-04-24T01:14:40;15.50;;;11.60;;
62056;SDS011;48016;50.284;18.860;2023-04-24T01:17:07;15.00;;;11.50;;
62056;SDS011;48016;50.284;18.860;2023-04-24T01:19:35;14.90;;;11.80;;
62056;SDS011;48016;50.284;18.860;2023-04-24T01:22:02;16.70;;;11.60;;
62056;SDS011;48016;50.284;18.860;2023-04-24T01:24:29;17.10;;;11.50;;
62056;SDS011;48016;50.284;18.860;2023-04-24T01:26:56;15.90;;;10.90;;
62056;SDS011;48016;50.284;18.860;2023-04-24T01:29:23;14.50;;;10.90;;
62056;SDS011;48016;50.284;18.860;2023-04-24T01:31:50;14.50;;;10.80;;
62056;SDS011;48016;50.284;18.860;2023-04-24T01:34:16;15.10;;;10.40;;
62056;SDS011;48016;50.284;18.860;2023-04-24T01:36:43;13.40;;;10.30;;
62056;SDS011;48016;50.284;18.860;2023-04-24T01:39:12;15.90;;;9.40;;
62056;SDS011;48016;50.284;18.860;2023-04-24T01:41:39;15.40;;;10.10;;
62056;SDS011;48016;50.284;18.860;2023-04-24T01:44:06;13.80;;;10.00;;
62056;SDS011;48016;50.284;18.860;2023-04-24T01:46:32;14.60;;;9.70;;
62056;SDS011;48016;50.284;18.860;2023-04-24T01:49:01;12.20;;;9.60;;
62056;SDS011;48016;50.284;18.860;2023-04-24T01:51:28;14.90;;;10.60;;
62056;SDS011;48016;50.284;18.860;2023-04-24T01:53:54;12.80;;;10.30;;
62056;SDS011;48016;50.284;18.860;2023-04-24T01:56:22;11.80;;;9.00;;
62056;SDS011;48016;50.284;18.860;2023-04-24T01:58:52;12.60;;;9.60;;
62056;SDS011;48016;50.284;18.860;2023-04-24T02:01:20;14.00;;;9.70;;
62056;SDS011;48016;50.284;18.860;2023-04-24T02:03:47;11.50;;;9.50;;
62056;SDS011;48016;50.284;18.860;2023-04-24T02:06:13;12.90;;;9.60;;
62056;SDS011;48016;50.284;18.860;2023-04-24T02:08:40;11.90;;;8.70;;
62056;SDS011;48016;50.284;18.860;2023-04-24T02:11:08;11.50;;;8.50;;
62056;SDS011;48016;50.284;18.860;2023-04-24T02:13:36;11.60;;;8.80;;
62056;SDS011;48016;50.284;18.860;2023-04-24T02:16:02;10.80;;;8.60;;
62056;SDS011;48016;50.284;18.860;2023-04-24T02:18:29;13.60;;;9.70;;
62056;SDS011;48016;50.284;18.860;2023-04-24T02:20:56;13.10;;;9.40;;
62056;SDS011;48016;50.284;18.860;2023-04-24T02:23:22;11.80;;;8.70;;
62056;SDS011;48016;50.284;18.860;2023-04-24T02:25:49;12.70;;;8.90;;
62056;SDS011;48016;50.284;18.860;2023-04-24T02:28:16;13.30;;;8.90;;
62056;SDS011;48016;50.284;18.860;2023-04-24T02:30:42;12.90;;;8.30;;
62056;SDS011;48016;50.284;18.860;2023-04-24T02:33:09;12.10;;;8.40;;
62056;SDS011;48016;50.284;18.860;2023-04-24T02:35:35;10.70;;;8.50;;
62056;SDS011;48016;50.284;18.860;2023-04-24T02:38:02;11.60;;;8.40;;
62056;SDS011;48016;50.284;18.860;2023-04-24T02:40:29;12.40;;;8.10;;
62056;SDS011;48016;50.284;18.860;2023-04-24T02:42:56;12.30;;;8.10;;
62056;SDS011;48016;50.284;18.860;2023-04-24T02:45:23;11.20;;;7.80;;
62056;SDS011;48016;50.284;18.860;2023-04-24T02:47:49;10.40;;;8.00;;
62056;SDS011;48016;50.284;18.860;2023-04-24T02:50:16;10.80;;;8.00;;
62056;SDS011;48016;50.284;18.860;2023-04-24T02:52:42;10.50;;;8.40;;
62056;SDS011;48016;50.284;18.860;2023-04-24T02:55:09;11.50;;;7.50;;
62056;SDS011;48016;50.284;18.860;2023-04-24T02:57:36;9.50;;;7.70;;
62056;SDS011;48016;50.284;18.860;2023-04-24T03:00:02;11.30;;;7.80;;
62056;SDS011;48016;50.284;18.860;2023-04-24T03:02:32;9.40;;;7.40;;
62056;SDS011;48016;50.284;18.860;2023-04-24T03:04:59;10.10;;;7.70;;
62056;SDS011;48016;50.284;18.860;2023-04-24T03:07:26;13.00;;;8.50;;
62056;SDS011;48016;50.284;18.860;2023-04-24T03:09:52;10.10;;;8.20;;
62056;SDS011;48016;50.284;18.860;2023-04-24T03:12:19;10.50;;;7.70;;
62056;SDS011;48016;50.284;18.860;2023-04-24T03:14:46;9.90;;;7.70;;
62056;SDS011;48016;50.284;18.860;2023-04-24T03:17:12;11.00;;;7.90;;
62056;SDS011;48016;50.284;18.860;2023-04-24T03:19:39;9.10;;;6.60;;
62056;SDS011;48016;50.284;18.860;2023-04-24T03:22:05;8.90;;;7.60;;
62056;SDS011;48016;50.284;18.860;2023-04-24T03:24:32;12.40;;;8.00;;
62056;SDS011;48016;50.284;18.860;2023-04-24T03:26:59;11.80;;;8.10;;
62056;SDS011;48016;50.284;18.860;2023-04-24T03:29:26;8.80;;;7.60;;
62056;SDS011;48016;50.284;18.860;2023-04-24T03:31:52;11.00;;;8.50;;
62056;SDS011;48016;50.284;18.860;2023-04-24T03:34:19;14.30;;;7.20;;
62056;SDS011;48016;50.284;18.860;2023-04-24T03:36:46;9.10;;;7.70;;
62056;SDS011;48016;50.284;18.860;2023-04-24T03:39:15;10.00;;;7.90;;
62056;SDS011;48016;50.284;18.860;2023-04-24T03:41:42;9.70;;;7.30;;
62056;SDS011;48016;50.284;18.860;2023-04-24T03:44:08;10.60;;;7.20;;
62056;SDS011;48016;50.284;18.860;2023-04-24T03:46:35;9.90;;;6.80;;
62056;SDS011;48016;50.284;18.860;2023-04-24T03:49:01;9.70;;;6.50;;
62056;SDS011;48016;50.284;18.860;2023-04-24T03:51:28;9.90;;;7.40;;
62056;SDS011;48016;50.284;18.860;2023-04-24T03:53:56;11.00;;;7.40;;
62056;SDS011;48016;50.284;18.860;2023-04-24T03:56:23;12.20;;;7.00;;
62056;SDS011;48016;50.284;18.860;2023-04-24T03:58:49;10.30;;;7.30;;
62056;SDS011;48016;50.284;18.860;2023-04-24T04:01:16;8.90;;;7.10;;
62056;SDS011;48016;50.284;18.860;2023-04-24T04:03:42;11.40;;;7.30;;
62056;SDS011;48016;50.284;18.860;2023-04-24T04:06:09;9.60;;;7.40;;
62056;SDS011;48016;50.284;18.860;2023-04-24T04:08:37;8.50;;;6.90;;
62056;SDS011;48016;50.284;18.860;2023-04-24T04:11:04;10.40;;;7.30;;
62056;SDS011;48016;50.284;18.860;2023-04-24T04:13:30;11.60;;;6.90;;
62056;SDS011;48016;50.284;18.860;2023-04-24T04:15:57;10.10;;;6.60;;
62056;SDS011;48016;50.284;18.860;2023-04-24T04:18:23;8.10;;;6.30;;
62056;SDS011;48016;50.284;18.860;2023-04-24T04:20:50;10.60;;;7.00;;
62056;SDS011;48016;50.284;18.860;2023-04-24T04:23:17;9.10;;;6.80;;
62056;SDS011;48016;50.284;18.860;2023-04-24T04:25:43;11.30;;;7.60;;
62056;SDS011;48016;50.284;18.860;2023-04-24T04:28:10;9.90;;;7.40;;
62056;SDS011;48016;50.284;18.860;2023-04-24T04:30:36;10.00;;;6.70;;
62056;SDS011;48016;50.284;18.860;2023-04-24T04:33:04;11.40;;;6.80;;
62056;SDS011;48016;50.284;18.860;2023-04-24T04:35:31;9.60;;;7.20;;
62056;SDS011;48016;50.284;18.860;2023-04-24T04:37:57;9.70;;;6.70;;
62056;SDS011;48016;50.284;18.860;2023-04-24T04:40:24;10.20;;;7.80;;
62056;SDS011;48016;50.284;18.860;2023-04-24T04:42:51;8.10;;;6.40;;
62056;SDS011;48016;50.284;18.860;2023-04-24T04:45:19;8.90;;;7.10;;
62056;SDS011;48016;50.284;18.860;2023-04-24T04:47:47;13.40;;;7.80;;
62056;SDS011;48016;50.284;18.860;2023-04-24T04:50:13;10.30;;;7.80;;
62056;SDS011;48016;50.284;18.860;2023-04-24T04:52:40;10.60;;;7.60;;
62056;SDS011;48016;50.284;18.860;2023-04-24T04:55:07;10.20;;;7.70;;
62056;SDS011;48016;50.284;18.860;2023-04-24T04:57:34;12.10;;;7.90;;
62056;SDS011;48016;50.284;18.860;2023-04-24T05:00:00;10.30;;;7.50;;
62056;SDS011;48016;50.284;18.860;2023-04-24T05:02:27;12.20;;;7.40;;
62056;SDS011;48016;50.284;18.860;2023-04-24T05:04:54;11.20;;;7.10;;
62056;SDS011;48016;50.284;18.860;2023-04-24T05:07:21;11.10;;;8.00;;
62056;SDS011;48016;50.284;18.860;2023-04-24T05:09:47;11.80;;;8.10;;
62056;SDS011;48016;50.284;18.860;2023-04-24T05:12:14;11.90;;;8.10;;
62056;SDS011;48016;50.284;18.860;2023-04-24T05:14:40;14.00;;;8.00;;
62056;SDS011;48016;50.284;18.860;2023-04-24T05:17:07;11.90;;;7.20;;
62056;SDS011;48016;50.284;18.860;2023-04-24T05:19:34;11.30;;;6.90;;
62056;SDS011;48016;50.284;18.860;2023-04-24T05:22:02;9.80;;;7.10;;
62056;SDS011;48016;50.284;18.860;2023-04-24T05:24:30;10.10;;;6.50;;
62056;SDS011;48016;50.284;18.860;2023-04-24T05:26:57;11.50;;;7.40;;
62056;SDS011;48016;50.284;18.860;2023-04-24T05:29:24;10.40;;;7.30;;
62056;SDS011;48016;50.284;18.860;2023-04-24T05:31:52;9.80;;;7.20;;
62056;SDS011;48016;50.284;18.860;2023-04-24T05:34:19;12.20;;;8.20;;
62056;SDS011;48016;50.284;18.860;2023-04-24T05:36:45;10.60;;;7.60;;
62056;SDS011;48016;50.284;18.860;2023-04-24T05:39:12;10.30;;;7.50;;
62056;SDS011;48016;50.284;18.860;2023-04-24T05:41:39;12.10;;;8.20;;
62056;SDS011;48016;50.284;18.860;2023-04-24T05:44:06;10.50;;;6.90;;
62056;SDS011;48016;50.284;18.860;2023-04-24T05:46:32;14.00;;;7.70;;
62056;SDS011;48016;50.284;18.860;2023-04-24T05:48:59;13.00;;;8.40;;
62056;SDS011;48016;50.284;18.860;2023-04-24T05:51:25;9.70;;;6.70;;
62056;SDS011;48016;50.284;18.860;2023-04-24T05:53:52;10.20;;;7.30;;
62056;SDS011;48016;50.284;18.860;2023-04-24T05:56:19;11.50;;;7.10;;
62056;SDS011;48016;50.284;18.860;2023-04-24T05:58:46;11.50;;;6.30;;
62056;SDS011;48016;50.284;18.860;2023-04-24T06:01:13;8.10;;;6.60;;
62056;SDS011;48016;50.284;18.860;2023-04-24T06:03:42;9.20;;;6.40;;
62056;SDS011;48016;50.284;18.860;2023-04-24T06:06:09;9.50;;;6.40;;
62056;SDS011;48016;50.284;18.860;2023-04-24T06:08:36;9.90;;;6.90;;
62056;SDS011;48016;50.284;18.860;2023-04-24T06:11:02;10.50;;;7.30;;
62056;SDS011;48016;50.284;18.860;2023-04-24T06:13:29;10.00;;;6.80;;
62056;SDS011;48016;50.284;18.860;2023-04-24T06:15:56;7.90;;;6.20;;
62056;SDS011;48016;50.284;18.860;2023-04-24T06:18:22;10.50;;;6.70;;
62056;SDS011;48016;50.284;18.860;2023-04-24T06:20:49;7.50;;;5.70;;
62056;SDS011;48016;50.284;18.860;2023-04-24T06:23:15;10.40;;;6.50;;
62056;SDS011;48016;50.284;18.860;2023-04-24T06:25:42;8.50;;;5.70;;
62056;SDS011;48016;50.284;18.860;2023-04-24T06:28:09;7.60;;;5.70;;
62056;SDS011;48016;50.284;18.860;2023-04-24T06:30:35;7.50;;;6.00;;
62056;SDS011;48016;50.284;18.860;2023-04-24T06:33:02;7.40;;;5.80;;
62056;SDS011;48016;50.284;18.860;2023-04-24T06:35:29;8.50;;;5.10;;
62056;SDS011;48016;50.284;18.860;2023-04-24T06:37:55;7.50;;;5.50;;
62056;SDS011;48016;50.284;18.860;2023-04-24T06:40:22;7.50;;;5.60;;
62056;SDS011;48016;50.284;18.860;2023-04-24T06:42:49;8.80;;;5.50;;
62056;SDS011;48016;50.284;18.860;2023-04-24T06:45:16;7.90;;;5.40;;
62056;SDS011;48016;50.284;18.860;2023-04-24T06:47:42;5.90;;;5.20;;
62056;SDS011;48016;50.284;18.860;2023-04-24T06:50:09;6.80;;;5.30;;
62056;SDS011;48016;50.284;18.860;2023-04-24T06:52:36;9.30;;;5.10;;
62056;SDS011;48016;50.284;18.860;2023-04-24T06:55:03;6.40;;;5.50;;
62056;SDS011;48016;50.284;18.860;2023-04-24T06:57:30;7.60;;;5.50;;
62056;SDS011;48016;50.284;18.860;2023-04-24T06:59:57;7.40;;;4.80;;
62056;SDS011;48016;50.284;18.860;2023-04-24T07:02:24;6.80;;;5.20;;
62056;SDS011;48016;50.284;18.860;2023-04-24T07:04:51;9.30;;;5.50;;
62056;SDS011;48016;50.284;18.860;2023-04-24T07:07:19;9.50;;;5.60;;
62056;SDS011;48016;50.284;18.860;2023-04-24T07:09:45;8.20;;;5.40;;
62056;SDS011;48016;50.284;18.860;2023-04-24T07:12:12;6.10;;;4.60;;
62056;SDS011;48016;50.284;18.860;2023-04-24T07:14:39;6.10;;;5.00;;
62056;SDS011;48016;50.284;18.860;2023-04-24T07:17:06;9.80;;;6.10;;
62056;SDS011;48016;50.284;18.860;2023-04-24T07:19:33;8.50;;;5.60;;
62056;SDS011;48016;50.284;18.860;2023-04-24T07:22:01;6.90;;;4.90;;
62056;SDS011;48016;50.284;18.860;2023-04-24T07:24:29;7.40;;;5.40;;
62056;SDS011;48016;50.284;18.860;2023-04-24T07:26:58;6.20;;;5.10;;
62056;SDS011;48016;50.284;18.860;2023-04-24T07:29:27;5.80;;;5.20;;
62056;SDS011;48016;50.284;18.860;2023-04-24T07:31:53;6.90;;;5.10;;
62056;SDS011;48016;50.284;18.860;2023-04-24T07:34:20;7.10;;;5.10;;
62056;SDS011;48016;50.284;18.860;2023-04-24T07:36:46;5.50;;;4.80;;
62056;SDS011;48016;50.284;18.860;2023-04-24T07:39:13;6.80;;;4.90;;
62056;SDS011;48016;50.284;18.860;2023-04-24T07:41:40;6.20;;;4.60;;
62056;SDS011;48016;50.284;18.860;2023-04-24T07:44:06;6.00;;;5.00;;
62056;SDS011;48016;50.284;18.860;2023-04-24T07:46:33;7.80;;;5.20;;
62056;SDS011;48016;50.284;18.860;2023-04-24T07:48:59;7.80;;;5.70;;
62056;SDS011;48016;50.284;18.860;2023-04-24T07:51:27;7.00;;;5.30;;
62056;SDS011;48016;50.284;18.860;2023-04-24T07:53:54;5.40;;;4.60;;
62056;SDS011;48016;50.284;18.860;2023-04-24T07:56:23;6.00;;;5.20;;
62056;SDS011;48016;50.284;18.860;2023-04-24T07:58:50;6.40;;;5.50;;
62056;SDS011;48016;50.284;18.860;2023-04-24T08:01:16;6.10;;;5.40;;
62056;SDS011;48016;50.284;18.860;2023-04-24T08:03:43;6.30;;;5.00;;
62056;SDS011;48016;50.284;18.860;2023-04-24T08:06:09;6.50;;;5.00;;
62056;SDS011;48016;50.284;18.860;2023-04-24T08:08:36;9.00;;;5.20;;
62056;SDS011;48016;50.284;18.860;2023-04-24T08:11:03;7.30;;;5.10;;
62056;SDS011;48016;50.284;18.860;2023-04-24T08:13:29;7.00;;;4.80;;
62056;SDS011;48016;50.284;18.860;2023-04-24T08:15:56;6.80;;;5.40;;
62056;SDS011;48016;50.284;18.860;2023-04-24T08:18:23;6.80;;;5.00;;
62056;SDS011;48016;50.284;18.860;2023-04-24T08:20:49;6.80;;;4.70;;
62056;SDS011;48016;50.284;18.860;2023-04-24T08:23:16;6.90;;;4.70;;
62056;SDS011;48016;50.284;18.860;2023-04-24T08:25:42;7.00;;;5.00;;
62056;SDS011;48016;50.284;18.860;2023-04-24T08:28:09;7.10;;;5.50;;
62056;SDS011;48016;50.284;18.860;2023-04-24T08:30:36;5.20;;;4.70;;
62056;SDS011;48016;50.284;18.860;2023-04-24T08:33:04;10.50;;;4.90;;
62056;SDS011;48016;50.284;18.860;2023-04-24T08:35:31;6.80;;;5.40;;
62056;SDS011;48016;50.284;18.860;2023-04-24T08:37:57;6.10;;;5.20;;
62056;SDS011;48016;50.284;18.860;2023-04-24T08:40:27;6.40;;;4.90;;
62056;SDS011;48016;50.284;18.860;2023-04-24T08:42:57;6.60;;;5.10;;
62056;SDS011;48016;50.284;18.860;2023-04-24T08:45:25;6.50;;;5.20;;
62056;SDS011;48016;50.284;18.860;2023-04-24T08:47:52;7.80;;;5.40;;
62056;SDS011;48016;50.284;18.860;2023-04-24T08:50:22;7.20;;;5.70;;
62056;SDS011;48016;50.284;18.860;2023-04-24T08:52:49;9.10;;;6.10;;
62056;SDS011;48016;50.284;18.860;2023-04-24T08:55:19;6.50;;;5.80;;
62056;SDS011;48016;50.284;18.860;2023-04-24T08:57:50;7.60;;;5.70;;
62056;SDS011;48016;50.284;18.860;2023-04-24T09:00:19;9.10;;;6.00;;
62056;SDS011;48016;50.284;18.860;2023-04-24T09:02:48;8.50;;;5.70;;
62056;SDS011;48016;50.284;18.860;2023-04-24T09:05:16;8.20;;;6.10;;
62056;SDS011;48016;50.284;18.860;2023-04-24T09:07:45;7.30;;;5.90;;
62056;SDS011;48016;50.284;18.860;2023-04-24T09:10:15;6.80;;;6.00;;
62056;SDS011;48016;50.284;18.860;2023-04-24T09:12:42;9.40;;;5.90;;
62056;SDS011;48016;50.284;18.860;2023-04-24T09:15:10;7.10;;;5.90;;
62056;SDS011;48016;50.284;18.860;2023-04-24T09:20:04;7.10;;;5.70;;
62056;SDS011;48016;50.284;18.860;2023-04-24T09:22:31;8.00;;;5.90;;
62056;SDS011;48016;50.284;18.860;2023-04-24T09:25:05;7.70;;;5.80;;
62056;SDS011;48016;50.284;18.860;2023-04-24T09:27:33;7.50;;;6.30;;
62056;SDS011;48016;50.284;18.860;2023-04-24T09:30:01;8.10;;;5.60;;
62056;SDS011;48016;50.284;18.860;2023-04-24T09:32:28;7.90;;;6.00;;
62056;SDS011;48016;50.284;18.860;2023-04-24T09:35:06;7.20;;;5.80;;
62056;SDS011;48016;50.284;18.860;2023-04-24T09:37:41;6.80;;;6.10;;
62056;SDS011;48016;50.284;18.860;2023-04-24T09:42:38;6.70;;;5.70;;
62056;SDS011;48016;50.284;18.860;2023-04-24T09:45:11;8.50;;;6.80;;
62056;SDS011;48016;50.284;18.860;2023-04-24T09:47:39;7.10;;;6.00;;
62056;SDS011;48016;50.284;18.860;2023-04-24T09:52:42;7.10;;;5.70;;
62056;SDS011;48016;50.284;18.860;2023-04-24T09:55:13;8.00;;;5.80;;
62056;SDS011;48016;50.284;18.860;2023-04-24T09:57:50;7.20;;;5.70;;
62056;SDS011;48016;50.284;18.860;2023-04-24T10:00:28;6.90;;;5.90;;
62056;SDS011;48016;50.284;18.860;2023-04-24T10:03:05;7.60;;;6.20;;
62056;SDS011;48016;50.284;18.860;2023-04-24T10:05:33;6.30;;;5.30;;
62056;SDS011;48016;50.284;18.860;2023-04-24T10:08:08;7.00;;;5.70;;
62056;SDS011;48016;50.284;18.860;2023-04-24T10:10:38;5.90;;;5.20;;
62056;SDS011;48016;50.284;18.860;2023-04-24T10:13:09;7.40;;;5.10;;
62056;SDS011;48016;50.284;18.860;2023-04-24T10:15:37;6.80;;;5.20;;
62056;SDS011;48016;50.284;18.860;2023-04-24T10:18:05;8.30;;;5.40;;
62056;SDS011;48016;50.284;18.860;2023-04-24T10:20:33;5.70;;;5.20;;
62056;SDS011;48016;50.284;18.860;2023-04-24T10:23:01;7.50;;;5.50;;
62056;SDS011;48016;50.284;18.860;2023-04-24T10:25:30;6.30;;;5.00;;
62056;SDS011;48016;50.284;18.860;2023-04-24T10:27:58;9.70;;;6.20;;
62056;SDS011;48016;50.284;18.860;2023-04-24T10:30:27;10.50;;;6.10;;
62056;SDS011;48016;50.284;18.860;2023-04-24T10:32:55;7.00;;;5.80;;
62056;SDS011;48016;50.284;18.860;2023-04-24T10:35:22;6.20;;;5.00;;
62056;SDS011;48016;50.284;18.860;2023-04-24T10:38:09;8.50;;;5.50;;
62056;SDS011;48016;50.284;18.860;2023-04-24T10:40:42;8.40;;;5.80;;
62056;SDS011;48016;50.284;18.860;2023-04-24T10:43:10;8.70;;;5.40;;
62056;SDS011;48016;50.284;18.860;2023-04-24T10:45:42;8.10;;;5.20;;
62056;SDS011;48016;50.284;18.860;2023-04-24T10:48:26;9.80;;;5.40;;
62056;SDS011;48016;50.284;18.860;2023-04-24T10:50:53;7.10;;;5.30;;
62056;SDS011;48016;50.284;18.860;2023-04-24T10:53:21;7.90;;;5.10;;
62056;SDS011;48016;50.284;18.860;2023-04-24T10:56:02;7.00;;;5.40;;
62056;SDS011;48016;50.284;18.860;2023-04-24T10:58:39;6.20;;;5.40;;
62056;SDS011;48016;50.284;18.860;2023-04-24T11:01:09;6.40;;;5.20;;
62056;SDS011;48016;50.284;18.860;2023-04-24T11:03:56;7.50;;;5.60;;
62056;SDS011;48016;50.284;18.860;2023-04-24T11:08:58;6.20;;;5.20;;
62056;SDS011;48016;50.284;18.860;2023-04-24T11:11:30;7.60;;;5.30;;
62056;SDS011;48016;50.284;18.860;2023-04-24T11:16:27;9.60;;;6.30;;
62056;SDS011;48016;50.284;18.860;2023-04-24T11:19:08;7.60;;;5.80;;
62056;SDS011;48016;50.284;18.860;2023-04-24T11:26:55;7.60;;;5.50;;
62056;SDS011;48016;50.284;18.860;2023-04-24T11:32:50;10.70;;;6.30;;
62056;SDS011;48016;50.284;18.860;2023-04-24T11:37:41;6.60;;;5.90;;
62056;SDS011;48016;50.284;18.860;2023-04-24T11:40:13;7.70;;;6.20;;
62056;SDS011;48016;50.284;18.860;2023-04-24T11:42:44;7.20;;;6.10;;
62056;SDS011;48016;50.284;18.860;2023-04-24T11:45:12;7.30;;;6.10;;
62056;SDS011;48016;50.284;18.860;2023-04-24T11:47:43;7.00;;;5.80;;
62056;SDS011;48016;50.284;18.860;2023-04-24T11:50:11;7.20;;;6.20;;
62056;SDS011;48016;50.284;18.860;2023-04-24T11:52:40;7.50;;;6.40;;
62056;SDS011;48016;50.284;18.860;2023-04-24T11:55:22;6.80;;;6.00;;
62056;SDS011;48016;50.284;18.860;2023-04-24T11:57:58;9.10;;;6.70;;
62056;SDS011;48016;50.284;18.860;2023-04-24T12:00:27;7.80;;;6.10;;
62056;SDS011;48016;50.284;18.860;2023-04-24T12:03:08;8.40;;;6.10;;
62056;SDS011;48016;50.284;18.860;2023-04-24T12:05:37;8.80;;;6.90;;
62056;SDS011;48016;50.284;18.860;2023-04-24T12:08:05;9.70;;;7.00;;
62056;SDS011;48016;50.284;18.860;2023-04-24T12:12:59;11.00;;;6.20;;
62056;SDS011;48016;50.284;18.860;2023-04-24T12:15:26;9.80;;;6.80;;
62056;SDS011;48016;50.284;18.860;2023-04-24T12:22:55;12.20;;;8.10;;
62056;SDS011;48016;50.284;18.860;2023-04-24T12:25:40;10.00;;;7.90;;
62056;SDS011;48016;50.284;18.860;2023-04-24T12:28:11;7.30;;;6.60;;
62056;SDS011;48016;50.284;18.860;2023-04-24T12:30:48;8.20;;;6.90;;
62056;SDS011;48016;50.284;18.860;2023-04-24T12:33:19;10.20;;;6.90;;
62056;SDS011;48016;50.284;18.860;2023-04-24T12:35:47;10.90;;;7.20;;
62056;SDS011;48016;50.284;18.860;2023-04-24T12:38:15;9.40;;;7.70;;
62056;SDS011;48016;50.284;18.860;2023-04-24T12:40:44;12.00;;;7.20;;
62056;SDS011;48016;50.284;18.860;2023-04-24T12:43:17;11.50;;;7.50;;
62056;SDS011;48016;50.284;18.860;2023-04-24T12:45:45;8.60;;;6.70;;
62056;SDS011;48016;50.284;18.860;2023-04-24T12:48:13;7.30;;;6.30;;
62056;SDS011;48016;50.284;18.860;2023-04-24T12:50:40;8.70;;;5.80;;
62056;SDS011;48016;50.284;18.860;2023-04-24T12:53:07;6.90;;;5.40;;
62056;SDS011;48016;50.284;18.860;2023-04-24T12:55:35;7.20;;;5.40;;
62056;SDS011;48016;50.284;18.860;2023-04-24T12:58:01;6.00;;;5.40;;
62056;SDS011;48016;50.284;18.860;2023-04-24T13:02:55;7.10;;;5.30;;
62056;SDS011;48016;50.284;18.860;2023-04-24T13:05:22;6.00;;;5.40;;
62056;SDS011;48016;50.284;18.860;2023-04-24T13:07:48;8.40;;;5.70;;
62056;SDS011;48016;50.284;18.860;2023-04-24T13:10:15;8.10;;;6.40;;
62056;SDS011;48016;50.284;18.860;2023-04-24T13:12:42;9.30;;;6.00;;
62056;SDS011;48016;50.284;18.860;2023-04-24T13:15:11;6.50;;;5.80;;
62056;SDS011;48016;50.284;18.860;2023-04-24T13:17:38;6.90;;;6.00;;
62056;SDS011;48016;50.284;18.860;2023-04-24T13:20:05;8.40;;;6.10;;
62056;SDS011;48016;50.284;18.860;2023-04-24T13:24:58;7.10;;;5.40;;
62056;SDS011;48016;50.284;18.860;2023-04-24T13:27:25;6.50;;;5.60;;
62056;SDS011;48016;50.284;18.860;2023-04-24T13:29:52;7.00;;;5.20;;
62056;SDS011;48016;50.284;18.860;2023-04-24T13:32:18;6.90;;;5.60;;
62056;SDS011;48016;50.284;18.860;2023-04-24T13:34:45;7.10;;;5.90;;
62056;SDS011;48016;50.284;18.860;2023-04-24T13:37:12;8.80;;;5.90;;
62056;SDS011;48016;50.284;18.860;2023-04-24T13:39:40;7.80;;;5.50;;
62056;SDS011;48016;50.284;18.860;2023-04-24T13:42:07;8.80;;;6.60;;
62056;SDS011;48016;50.284;18.860;2023-04-24T13:44:34;9.90;;;6.70;;
62056;SDS011;48016;50.284;18.860;2023-04-24T13:47:01;9.40;;;6.90;;
62056;SDS011;48016;50.284;18.860;2023-04-24T13:49:27;10.00;;;6.60;;
62056;SDS011;48016;50.284;18.860;2023-04-24T13:51:55;13.10;;;7.30;;
62056;SDS011;48016;50.284;18.860;2023-04-24T13:54:22;9.40;;;6.90;;
62056;SDS011;48016;50.284;18.860;2023-04-24T13:56:51;10.20;;;7.60;;
62056;SDS011;48016;50.284;18.860;2023-04-24T13:59:19;9.30;;;7.40;;
62056;SDS011;48016;50.284;18.860;2023-04-24T14:01:47;10.10;;;8.10;;
62056;SDS011;48016;50.284;18.860;2023-04-24T14:04:14;13.00;;;9.70;;
62056;SDS011;48016;50.284;18.860;2023-04-24T14:06:40;13.30;;;9.30;;
62056;SDS011;48016;50.284;18.860;2023-04-24T14:09:07;11.20;;;9.10;;
62056;SDS011;48016;50.284;18.860;2023-04-24T14:11:33;14.60;;;10.70;;
62056;SDS011;48016;50.284;18.860;2023-04-24T14:14:00;10.80;;;8.90;;
62056;SDS011;48016;50.284;18.860;2023-04-24T14:16:27;10.20;;;7.80;;
62056;SDS011;48016;50.284;18.860;2023-04-24T14:21:21;8.90;;;7.90;;
62056;SDS011;48016;50.284;18.860;2023-04-24T14:23:47;10.50;;;8.70;;
62056;SDS011;48016;50.284;18.860;2023-04-24T14:26:14;11.80;;;8.80;;
62056;SDS011;48016;50.284;18.860;2023-04-24T14:28:41;10.10;;;9.10;;
62056;SDS011;48016;50.284;18.860;2023-04-24T14:31:07;10.50;;;9.40;;
62056;SDS011;48016;50.284;18.860;2023-04-24T14:33:34;12.10;;;9.20;;
62056;SDS011;48016;50.284;18.860;2023-04-24T14:36:01;9.60;;;8.00;;
62056;SDS011;48016;50.284;18.860;2023-04-24T14:38:29;10.10;;;8.10;;
62056;SDS011;48016;50.284;18.860;2023-04-24T14:43:23;8.30;;;7.10;;
62056;SDS011;48016;50.284;18.860;2023-04-24T14:45:49;11.90;;;7.90;;
62056;SDS011;48016;50.284;18.860;2023-04-24T14:48:16;7.60;;;6.70;;
62056;SDS011;48016;50.284;18.860;2023-04-24T14:53:11;8.40;;;6.80;;
62056;SDS011;48016;50.284;18.860;2023-04-24T14:55:38;7.20;;;6.40;;
62056;SDS011;48016;50.284;18.860;2023-04-24T14:58:04;6.70;;;6.00;;
62056;SDS011;48016;50.284;18.860;2023-04-24T15:00:31;7.70;;;5.80;;
62056;SDS011;48016;50.284;18.860;2023-04-24T15:02:58;7.90;;;6.40;;
62056;SDS011;48016;50.284;18.860;2023-04-24T15:05:24;10.10;;;6.60;;
62056;SDS011;48016;50.284;18.860;2023-04-24T15:07:51;10.30;;;6.80;;
62056;SDS011;48016;50.284;18.860;2023-04-24T15:10:17;8.40;;;6.20;;
62056;SDS011;48016;50.284;18.860;2023-04-24T15:12:44;11.10;;;7.50;;
62056;SDS011;48016;50.284;18.860;2023-04-24T15:15:11;7.60;;;6.50;;